Lagoon City, Ontario

Past 24 Hour Conditions

This table is a summary of hourly weather conditions for the past 24 hours. This summary includes the following parameters: temperature, humidity, dew point, wind speed and direction, air pressure, visibility and/or wind chill and humidex.
Date / Time
(EDT)
Conditions Temp (°F) Humidity (%) Dew Point (°F) Wind (mph) Pressure (inches) Visibility (miles)
01 October 2014
00:00 N/A 57 87 53 ENE 7 30.0 N/A
30 September 2014
23:00 N/A 56   87 53 ENE 9 30.0 N/A
22:00 N/A 57 86 53 ENE 9 30.0 N/A
21:00 N/A 59 82 54 ENE 10 30.0 N/A
20:00 N/A 62 77 55 NE 7 30.0 N/A
19:00 N/A 65 76 57 NNE 3 29.9 N/A
18:00 N/A 67   76 59 N 7 29.9 N/A
17:00 N/A 65 81 59 NW 5 29.9 N/A
16:00 N/A 64 83 59 W 7 29.9 N/A
15:00 N/A 65 81 59 WSW 7 29.9 N/A
14:00 N/A 66 77 59 S 2 29.9 N/A
13:00 N/A 65 77 58 ESE 8 29.9 N/A
12:00 N/A 64 79 58 E 8 29.9 N/A
11:00 N/A 61 86 57 ENE 8 29.9 N/A
10:00 N/A 60 86 56 E 7 29.9 N/A
9:00 N/A 60 89 56 E 7 29.9 N/A
8:00 N/A 60 93 58 E 9 29.9 N/A
7:00 N/A 59 94 58 NE 6 29.9 N/A
6:00 N/A 61 92 59 SSE 7 29.9 N/A
5:00 N/A 60 91 57 SSE 8 29.9 N/A
4:00 N/A 61 87 57 SE 7 29.9 N/A
3:00 N/A 62 84 57 SE 6 29.9 N/A
2:00 N/A 62 81 56 SE 5 29.9 N/A
1:00 N/A 63 78 56 SE 5 29.9 N/A
00:00 N/A 65 76 57 SE 5 29.9 N/A
N/A
Not available
 ↑ 
Highest temperature
 ↓ 
Lowest temperature

If you require additional historical weather information, please visit Climate Data Online.